Archival Weather

Chicago O'Hare International

Chicago, Illinois (KORD)

Report from: Wednesday, June 15, 2022 11:51 PM CDT
Current time: Wednesday, April 24, 2024 1:42 PM CDT

Current weather – Weather history – Daily summaries
Weather forecast

Temperature30.6°C (87.1°F)
Heat index31.4°C (88.4°F)
Dew point17.8°C (64.0°F)
Winds 16 kts (8.2 m/s, 18.4 mph) South-Southwest (210°)
Wind gusts 28 kts (14.4 m/s, 32.2 mph)
Peak wind 28 kts (14.4 m/s, 32.2 mph) South-Southwest (210°) at 04:45
Visibility10 mi. (16.1 km)
Clouds Scattered clouds 6,500 ft. (1,981 m)
Ceiling: Broken clouds 9,000 ft. (2,743 m)
Broken clouds 25,000 ft. (7,620 m)
Altimeter29.82 in.Hg (1010 mB)
Relative humidity46 %
Density altitude2,207 ft. (673 m)
Sea-level pressure100.9 kPa (1009 mB, 29.80 in.Hg)
Remarks Automated weather observing station with precipitation discriminator
Lightning observed
Lightning observed: intra cloud
Distant northwest occasional distant northwest cumulonimbus clouds observed distant northwest
Flight conditions Visual Meteorological Conditions
Raw dataKORD 160451Z 21016G28KT 10SM SCT065 BKN090 BKN250 31/18 A2982 RMK AO2 PK WND 21028/0445 LTG DSNT NW SLP090 OCNL LTGIC DSNT NW CB DSNT NW T03060178
An error has occurred. This application may no longer respond until reloaded. Reload 🗙